sensor_id;sensor_type;location;lat;lon;timestamp;P1;durP1;ratioP1;P2;durP2;ratioP2
25758;SDS011;13604;52.496;13.456;2023-07-31T00:02:16;5.13;;;2.13;;
25758;SDS011;13604;52.496;13.456;2023-07-31T00:04:42;3.85;;;2.17;;
25758;SDS011;13604;52.496;13.456;2023-07-31T00:07:07;5.75;;;2.10;;
25758;SDS011;13604;52.496;13.456;2023-07-31T00:09:32;4.13;;;2.10;;
25758;SDS011;13604;52.496;13.456;2023-07-31T00:11:58;7.50;;;2.50;;
25758;SDS011;13604;52.496;13.456;2023-07-31T00:14:24;5.63;;;2.85;;
25758;SDS011;13604;52.496;13.456;2023-07-31T00:16:49;9.13;;;4.45;;
25758;SDS011;13604;52.496;13.456;2023-07-31T00:19:14;20.45;;;7.55;;
25758;SDS011;13604;52.496;13.456;2023-07-31T00:21:40;10.93;;;5.10;;
25758;SDS011;13604;52.496;13.456;2023-07-31T00:24:05;8.23;;;3.00;;
25758;SDS011;13604;52.496;13.456;2023-07-31T00:26:30;11.80;;;4.35;;
25758;SDS011;13604;52.496;13.456;2023-07-31T00:28:56;11.18;;;3.55;;
25758;SDS011;13604;52.496;13.456;2023-07-31T00:31:21;8.48;;;3.20;;
25758;SDS011;13604;52.496;13.456;2023-07-31T00:33:46;10.13;;;3.75;;
25758;SDS011;13604;52.496;13.456;2023-07-31T00:36:12;7.45;;;2.90;;
25758;SDS011;13604;52.496;13.456;2023-07-31T00:38:37;5.75;;;3.15;;
25758;SDS011;13604;52.496;13.456;2023-07-31T00:41:02;4.07;;;2.78;;
25758;SDS011;13604;52.496;13.456;2023-07-31T00:43:27;4.25;;;2.45;;
25758;SDS011;13604;52.496;13.456;2023-07-31T00:45:53;5.35;;;2.58;;
25758;SDS011;13604;52.496;13.456;2023-07-31T00:48:18;3.67;;;2.35;;
25758;SDS011;13604;52.496;13.456;2023-07-31T00:50:43;6.85;;;3.08;;
25758;SDS011;13604;52.496;13.456;2023-07-31T00:53:09;5.43;;;2.70;;
25758;SDS011;13604;52.496;13.456;2023-07-31T00:55:35;9.05;;;2.70;;
25758;SDS011;13604;52.496;13.456;2023-07-31T00:58:01;5.22;;;2.30;;
25758;SDS011;13604;52.496;13.456;2023-07-31T01:00:26;6.07;;;2.70;;
25758;SDS011;13604;52.496;13.456;2023-07-31T01:02:51;7.20;;;3.05;;
25758;SDS011;13604;52.496;13.456;2023-07-31T01:05:19;6.45;;;2.67;;
25758;SDS011;13604;52.496;13.456;2023-07-31T01:08:15;7.78;;;2.53;;
25758;SDS011;13604;52.496;13.456;2023-07-31T01:11:07;7.55;;;2.80;;
25758;SDS011;13604;52.496;13.456;2023-07-31T01:13:40;5.97;;;3.22;;
25758;SDS011;13604;52.496;13.456;2023-07-31T01:16:05;5.95;;;2.80;;
25758;SDS011;13604;52.496;13.456;2023-07-31T01:18:31;7.03;;;2.90;;
25758;SDS011;13604;52.496;13.456;2023-07-31T01:21:00;7.43;;;2.90;;
25758;SDS011;13604;52.496;13.456;2023-07-31T01:26:30;7.47;;;2.90;;
25758;SDS011;13604;52.496;13.456;2023-07-31T01:29:01;5.15;;;2.92;;
25758;SDS011;13604;52.496;13.456;2023-07-31T01:31:35;5.63;;;2.72;;
25758;SDS011;13604;52.496;13.456;2023-07-31T01:34:02;7.43;;;2.78;;
25758;SDS011;13604;52.496;13.456;2023-07-31T01:36:29;3.92;;;2.53;;
25758;SDS011;13604;52.496;13.456;2023-07-31T01:39:00;5.85;;;2.95;;
25758;SDS011;13604;52.496;13.456;2023-07-31T01:41:26;4.40;;;2.78;;
25758;SDS011;13604;52.496;13.456;2023-07-31T01:43:51;6.80;;;2.88;;
25758;SDS011;13604;52.496;13.456;2023-07-31T01:46:16;5.50;;;2.92;;
25758;SDS011;13604;52.496;13.456;2023-07-31T01:48:42;7.18;;;3.08;;
25758;SDS011;13604;52.496;13.456;2023-07-31T01:51:07;4.72;;;2.85;;
25758;SDS011;13604;52.496;13.456;2023-07-31T01:53:32;8.90;;;4.65;;
25758;SDS011;13604;52.496;13.456;2023-07-31T01:55:58;10.40;;;4.93;;
25758;SDS011;13604;52.496;13.456;2023-07-31T01:58:23;11.73;;;4.60;;
25758;SDS011;13604;52.496;13.456;2023-07-31T02:00:49;4.30;;;3.20;;
25758;SDS011;13604;52.496;13.456;2023-07-31T02:03:14;5.65;;;3.22;;
25758;SDS011;13604;52.496;13.456;2023-07-31T02:05:46;6.38;;;3.65;;
25758;SDS011;13604;52.496;13.456;2023-07-31T02:08:14;5.22;;;3.03;;
25758;SDS011;13604;52.496;13.456;2023-07-31T02:10:40;4.72;;;2.63;;
25758;SDS011;13604;52.496;13.456;2023-07-31T02:13:05;5.40;;;3.20;;
25758;SDS011;13604;52.496;13.456;2023-07-31T02:15:31;7.03;;;3.53;;
25758;SDS011;13604;52.496;13.456;2023-07-31T02:17:56;8.65;;;4.18;;
25758;SDS011;13604;52.496;13.456;2023-07-31T02:20:22;8.23;;;3.72;;
25758;SDS011;13604;52.496;13.456;2023-07-31T02:22:47;6.35;;;3.80;;
25758;SDS011;13604;52.496;13.456;2023-07-31T02:25:13;9.10;;;4.25;;
25758;SDS011;13604;52.496;13.456;2023-07-31T02:27:38;4.28;;;3.10;;
25758;SDS011;13604;52.496;13.456;2023-07-31T02:30:04;6.80;;;3.47;;
25758;SDS011;13604;52.496;13.456;2023-07-31T02:32:29;8.00;;;3.88;;
25758;SDS011;13604;52.496;13.456;2023-07-31T02:34:54;9.07;;;3.95;;
25758;SDS011;13604;52.496;13.456;2023-07-31T02:37:20;6.22;;;3.00;;
25758;SDS011;13604;52.496;13.456;2023-07-31T02:39:45;9.32;;;4.32;;
25758;SDS011;13604;52.496;13.456;2023-07-31T02:42:10;9.80;;;4.20;;
25758;SDS011;13604;52.496;13.456;2023-07-31T02:44:36;7.32;;;3.90;;
25758;SDS011;13604;52.496;13.456;2023-07-31T02:47:01;6.53;;;4.07;;
25758;SDS011;13604;52.496;13.456;2023-07-31T02:49:28;8.55;;;4.38;;
25758;SDS011;13604;52.496;13.456;2023-07-31T02:51:53;9.35;;;3.90;;
25758;SDS011;13604;52.496;13.456;2023-07-31T02:54:18;9.68;;;4.38;;
25758;SDS011;13604;52.496;13.456;2023-07-31T02:56:45;10.95;;;4.10;;
25758;SDS011;13604;52.496;13.456;2023-07-31T02:59:10;10.77;;;4.35;;
25758;SDS011;13604;52.496;13.456;2023-07-31T03:01:36;10.43;;;4.00;;
25758;SDS011;13604;52.496;13.456;2023-07-31T03:04:01;10.05;;;4.43;;
25758;SDS011;13604;52.496;13.456;2023-07-31T03:06:26;6.85;;;4.18;;
25758;SDS011;13604;52.496;13.456;2023-07-31T03:08:52;8.68;;;4.50;;
25758;SDS011;13604;52.496;13.456;2023-07-31T03:11:18;7.45;;;4.35;;
25758;SDS011;13604;52.496;13.456;2023-07-31T03:13:43;7.00;;;4.57;;
25758;SDS011;13604;52.496;13.456;2023-07-31T03:16:08;14.10;;;6.22;;
25758;SDS011;13604;52.496;13.456;2023-07-31T03:18:34;8.35;;;5.53;;
25758;SDS011;13604;52.496;13.456;2023-07-31T03:20:59;11.27;;;5.50;;
25758;SDS011;13604;52.496;13.456;2023-07-31T03:23:24;9.65;;;6.03;;
25758;SDS011;13604;52.496;13.456;2023-07-31T03:26:00;10.60;;;5.78;;
25758;SDS011;13604;52.496;13.456;2023-07-31T03:28:28;8.50;;;4.85;;
25758;SDS011;13604;52.496;13.456;2023-07-31T03:30:54;9.10;;;5.45;;
25758;SDS011;13604;52.496;13.456;2023-07-31T03:33:20;15.27;;;6.32;;
25758;SDS011;13604;52.496;13.456;2023-07-31T03:35:45;10.00;;;5.53;;
25758;SDS011;13604;52.496;13.456;2023-07-31T03:38:11;9.57;;;5.28;;
25758;SDS011;13604;52.496;13.456;2023-07-31T03:40:36;9.50;;;5.22;;
25758;SDS011;13604;52.496;13.456;2023-07-31T03:43:01;9.05;;;5.68;;
25758;SDS011;13604;52.496;13.456;2023-07-31T03:45:26;10.02;;;5.63;;
25758;SDS011;13604;52.496;13.456;2023-07-31T03:47:52;9.82;;;5.82;;
25758;SDS011;13604;52.496;13.456;2023-07-31T03:50:18;11.48;;;5.60;;
25758;SDS011;13604;52.496;13.456;2023-07-31T03:52:43;11.90;;;5.18;;
25758;SDS011;13604;52.496;13.456;2023-07-31T03:55:09;8.55;;;5.10;;
25758;SDS011;13604;52.496;13.456;2023-07-31T03:57:34;9.27;;;5.30;;
25758;SDS011;13604;52.496;13.456;2023-07-31T03:59:59;15.60;;;5.57;;
25758;SDS011;13604;52.496;13.456;2023-07-31T04:02:25;7.55;;;5.30;;
25758;SDS011;13604;52.496;13.456;2023-07-31T04:04:50;10.77;;;5.35;;
25758;SDS011;13604;52.496;13.456;2023-07-31T04:07:15;8.23;;;4.45;;
25758;SDS011;13604;52.496;13.456;2023-07-31T04:09:40;14.52;;;5.05;;
25758;SDS011;13604;52.496;13.456;2023-07-31T04:12:06;11.13;;;5.50;;
25758;SDS011;13604;52.496;13.456;2023-07-31T04:14:31;10.82;;;5.30;;
25758;SDS011;13604;52.496;13.456;2023-07-31T04:16:57;8.55;;;5.47;;
25758;SDS011;13604;52.496;13.456;2023-07-31T04:19:22;8.90;;;5.30;;
25758;SDS011;13604;52.496;13.456;2023-07-31T04:21:47;9.65;;;5.32;;
25758;SDS011;13604;52.496;13.456;2023-07-31T04:24:13;8.88;;;5.38;;
25758;SDS011;13604;52.496;13.456;2023-07-31T04:26:38;9.73;;;5.03;;
25758;SDS011;13604;52.496;13.456;2023-07-31T04:29:03;9.63;;;4.95;;
25758;SDS011;13604;52.496;13.456;2023-07-31T04:31:28;9.15;;;5.13;;
25758;SDS011;13604;52.496;13.456;2023-07-31T04:33:54;7.88;;;5.28;;
25758;SDS011;13604;52.496;13.456;2023-07-31T04:36:19;9.48;;;5.55;;
25758;SDS011;13604;52.496;13.456;2023-07-31T04:38:44;8.07;;;5.20;;
25758;SDS011;13604;52.496;13.456;2023-07-31T04:41:10;6.10;;;4.32;;
25758;SDS011;13604;52.496;13.456;2023-07-31T04:43:35;10.07;;;4.60;;
25758;SDS011;13604;52.496;13.456;2023-07-31T04:46:00;8.23;;;5.10;;
25758;SDS011;13604;52.496;13.456;2023-07-31T04:48:25;9.13;;;4.10;;
25758;SDS011;13604;52.496;13.456;2023-07-31T04:50:51;9.15;;;4.75;;
25758;SDS011;13604;52.496;13.456;2023-07-31T04:53:16;9.32;;;5.07;;
25758;SDS011;13604;52.496;13.456;2023-07-31T04:55:41;11.60;;;4.72;;
25758;SDS011;13604;52.496;13.456;2023-07-31T04:58:07;11.70;;;4.30;;
25758;SDS011;13604;52.496;13.456;2023-07-31T05:00:32;7.47;;;4.68;;
25758;SDS011;13604;52.496;13.456;2023-07-31T05:02:57;9.50;;;4.13;;
25758;SDS011;13604;52.496;13.456;2023-07-31T05:05:23;6.72;;;4.57;;
25758;SDS011;13604;52.496;13.456;2023-07-31T05:07:48;10.07;;;4.45;;
25758;SDS011;13604;52.496;13.456;2023-07-31T05:10:13;6.82;;;4.47;;
25758;SDS011;13604;52.496;13.456;2023-07-31T05:12:38;10.98;;;4.07;;
25758;SDS011;13604;52.496;13.456;2023-07-31T05:15:04;5.82;;;4.18;;
25758;SDS011;13604;52.496;13.456;2023-07-31T05:17:30;6.20;;;3.65;;
25758;SDS011;13604;52.496;13.456;2023-07-31T05:19:55;9.85;;;4.45;;
25758;SDS011;13604;52.496;13.456;2023-07-31T05:22:20;11.48;;;3.33;;
25758;SDS011;13604;52.496;13.456;2023-07-31T05:24:45;7.57;;;3.72;;
25758;SDS011;13604;52.496;13.456;2023-07-31T05:27:11;12.52;;;4.35;;
25758;SDS011;13604;52.496;13.456;2023-07-31T05:29:37;6.80;;;3.40;;
25758;SDS011;13604;52.496;13.456;2023-07-31T05:32:03;10.82;;;4.10;;
25758;SDS011;13604;52.496;13.456;2023-07-31T05:34:28;8.48;;;3.70;;
25758;SDS011;13604;52.496;13.456;2023-07-31T05:36:54;10.43;;;3.72;;
25758;SDS011;13604;52.496;13.456;2023-07-31T05:39:19;7.70;;;4.03;;
25758;SDS011;13604;52.496;13.456;2023-07-31T05:41:44;7.63;;;3.55;;
25758;SDS011;13604;52.496;13.456;2023-07-31T05:44:10;8.65;;;3.97;;
25758;SDS011;13604;52.496;13.456;2023-07-31T05:46:35;8.80;;;3.42;;
25758;SDS011;13604;52.496;13.456;2023-07-31T05:49:00;7.72;;;4.05;;
25758;SDS011;13604;52.496;13.456;2023-07-31T05:51:26;8.93;;;3.95;;
25758;SDS011;13604;52.496;13.456;2023-07-31T05:53:52;10.88;;;3.50;;
25758;SDS011;13604;52.496;13.456;2023-07-31T05:56:17;8.98;;;3.67;;
25758;SDS011;13604;52.496;13.456;2023-07-31T05:58:43;10.05;;;3.72;;
25758;SDS011;13604;52.496;13.456;2023-07-31T06:01:08;11.07;;;3.60;;
25758;SDS011;13604;52.496;13.456;2023-07-31T06:03:33;6.63;;;3.42;;
25758;SDS011;13604;52.496;13.456;2023-07-31T06:05:59;6.45;;;3.33;;
25758;SDS011;13604;52.496;13.456;2023-07-31T06:08:24;13.05;;;4.22;;
25758;SDS011;13604;52.496;13.456;2023-07-31T06:10:50;10.45;;;3.83;;
25758;SDS011;13604;52.496;13.456;2023-07-31T06:13:15;6.97;;;3.33;;
25758;SDS011;13604;52.496;13.456;2023-07-31T06:15:40;8.30;;;3.72;;
25758;SDS011;13604;52.496;13.456;2023-07-31T06:18:06;8.30;;;3.42;;
25758;SDS011;13604;52.496;13.456;2023-07-31T06:20:32;10.05;;;3.60;;
25758;SDS011;13604;52.496;13.456;2023-07-31T06:22:58;9.48;;;3.08;;
25758;SDS011;13604;52.496;13.456;2023-07-31T06:25:24;7.30;;;3.40;;
25758;SDS011;13604;52.496;13.456;2023-07-31T06:27:49;9.70;;;4.07;;
25758;SDS011;13604;52.496;13.456;2023-07-31T06:30:14;8.00;;;3.67;;
25758;SDS011;13604;52.496;13.456;2023-07-31T06:32:40;8.05;;;4.05;;
25758;SDS011;13604;52.496;13.456;2023-07-31T06:35:05;8.48;;;3.70;;
25758;SDS011;13604;52.496;13.456;2023-07-31T06:37:31;14.55;;;3.85;;
25758;SDS011;13604;52.496;13.456;2023-07-31T06:39:56;9.15;;;3.58;;
25758;SDS011;13604;52.496;13.456;2023-07-31T06:42:22;10.63;;;4.00;;
25758;SDS011;13604;52.496;13.456;2023-07-31T06:44:47;7.00;;;3.50;;
25758;SDS011;13604;52.496;13.456;2023-07-31T06:47:12;10.40;;;3.30;;
25758;SDS011;13604;52.496;13.456;2023-07-31T06:49:38;8.98;;;3.30;;
25758;SDS011;13604;52.496;13.456;2023-07-31T06:52:03;6.90;;;3.22;;
25758;SDS011;13604;52.496;13.456;2023-07-31T06:54:28;9.45;;;4.15;;
25758;SDS011;13604;52.496;13.456;2023-07-31T06:56:54;8.27;;;3.05;;
25758;SDS011;13604;52.496;13.456;2023-07-31T06:59:19;8.63;;;3.03;;
25758;SDS011;13604;52.496;13.456;2023-07-31T07:01:44;7.90;;;2.97;;
25758;SDS011;13604;52.496;13.456;2023-07-31T07:04:10;9.10;;;3.10;;
25758;SDS011;13604;52.496;13.456;2023-07-31T07:06:35;8.60;;;3.10;;
25758;SDS011;13604;52.496;13.456;2023-07-31T07:09:00;7.15;;;3.10;;
25758;SDS011;13604;52.496;13.456;2023-07-31T07:11:25;5.55;;;3.10;;
25758;SDS011;13604;52.496;13.456;2023-07-31T07:13:51;7.63;;;3.15;;
25758;SDS011;13604;52.496;13.456;2023-07-31T07:16:17;8.88;;;3.90;;
25758;SDS011;13604;52.496;13.456;2023-07-31T07:18:42;10.48;;;2.92;;
25758;SDS011;13604;52.496;13.456;2023-07-31T07:21:07;5.25;;;3.10;;
25758;SDS011;13604;52.496;13.456;2023-07-31T07:23:33;6.40;;;3.13;;
25758;SDS011;13604;52.496;13.456;2023-07-31T07:25:58;8.50;;;3.13;;
25758;SDS011;13604;52.496;13.456;2023-07-31T07:28:24;9.93;;;3.25;;
25758;SDS011;13604;52.496;13.456;2023-07-31T07:30:52;6.43;;;3.10;;
25758;SDS011;13604;52.496;13.456;2023-07-31T07:33:18;8.57;;;3.00;;
25758;SDS011;13604;52.496;13.456;2023-07-31T07:35:44;5.63;;;3.30;;
25758;SDS011;13604;52.496;13.456;2023-07-31T07:38:09;6.50;;;3.28;;
25758;SDS011;13604;52.496;13.456;2023-07-31T07:40:38;4.82;;;2.97;;
25758;SDS011;13604;52.496;13.456;2023-07-31T07:43:04;2.85;;;2.58;;
25758;SDS011;13604;52.496;13.456;2023-07-31T07:45:29;3.47;;;2.63;;
25758;SDS011;13604;52.496;13.456;2023-07-31T07:47:54;6.88;;;3.33;;
25758;SDS011;13604;52.496;13.456;2023-07-31T07:50:20;6.18;;;2.95;;
25758;SDS011;13604;52.496;13.456;2023-07-31T07:52:45;5.15;;;3.00;;
25758;SDS011;13604;52.496;13.456;2023-07-31T07:55:11;5.30;;;2.85;;
25758;SDS011;13604;52.496;13.456;2023-07-31T07:57:36;5.95;;;3.20;;
25758;SDS011;13604;52.496;13.456;2023-07-31T08:00:01;5.32;;;2.83;;
25758;SDS011;13604;52.496;13.456;2023-07-31T08:02:27;4.93;;;3.00;;
25758;SDS011;13604;52.496;13.456;2023-07-31T08:04:52;4.68;;;2.40;;
25758;SDS011;13604;52.496;13.456;2023-07-31T08:07:17;5.53;;;2.97;;
25758;SDS011;13604;52.496;13.456;2023-07-31T08:09:42;10.20;;;3.08;;
25758;SDS011;13604;52.496;13.456;2023-07-31T08:12:08;6.28;;;2.60;;
25758;SDS011;13604;52.496;13.456;2023-07-31T08:14:33;3.17;;;2.45;;
25758;SDS011;13604;52.496;13.456;2023-07-31T08:16:58;4.13;;;2.78;;
25758;SDS011;13604;52.496;13.456;2023-07-31T08:19:24;5.40;;;2.40;;
25758;SDS011;13604;52.496;13.456;2023-07-31T08:21:50;2.88;;;2.28;;
25758;SDS011;13604;52.496;13.456;2023-07-31T08:24:15;3.75;;;2.22;;
25758;SDS011;13604;52.496;13.456;2023-07-31T08:26:40;2.80;;;1.88;;
25758;SDS011;13604;52.496;13.456;2023-07-31T08:29:06;4.15;;;2.15;;
25758;SDS011;13604;52.496;13.456;2023-07-31T08:31:31;2.80;;;2.38;;
25758;SDS011;13604;52.496;13.456;2023-07-31T08:33:56;4.45;;;2.33;;
25758;SDS011;13604;52.496;13.456;2023-07-31T08:36:22;3.80;;;2.35;;
25758;SDS011;13604;52.496;13.456;2023-07-31T08:38:47;2.95;;;2.17;;
25758;SDS011;13604;52.496;13.456;2023-07-31T08:41:12;5.32;;;2.90;;
25758;SDS011;13604;52.496;13.456;2023-07-31T08:43:38;3.88;;;2.50;;
25758;SDS011;13604;52.496;13.456;2023-07-31T08:46:04;4.25;;;2.30;;
25758;SDS011;13604;52.496;13.456;2023-07-31T08:48:29;4.70;;;2.60;;
25758;SDS011;13604;52.496;13.456;2023-07-31T08:50:57;3.42;;;2.10;;
25758;SDS011;13604;52.496;13.456;2023-07-31T08:53:22;6.13;;;2.60;;
25758;SDS011;13604;52.496;13.456;2023-07-31T08:55:48;6.15;;;2.88;;
25758;SDS011;13604;52.496;13.456;2023-07-31T08:58:13;5.00;;;2.65;;
25758;SDS011;13604;52.496;13.456;2023-07-31T09:00:40;5.35;;;2.65;;
25758;SDS011;13604;52.496;13.456;2023-07-31T09:03:09;8.13;;;2.42;;
25758;SDS011;13604;52.496;13.456;2023-07-31T09:05:38;5.30;;;2.55;;
25758;SDS011;13604;52.496;13.456;2023-07-31T09:08:07;4.38;;;2.55;;
25758;SDS011;13604;52.496;13.456;2023-07-31T09:10:35;5.38;;;2.90;;
25758;SDS011;13604;52.496;13.456;2023-07-31T09:13:00;4.80;;;2.55;;
25758;SDS011;13604;52.496;13.456;2023-07-31T09:15:27;4.10;;;2.58;;
25758;SDS011;13604;52.496;13.456;2023-07-31T09:17:58;4.22;;;2.13;;
25758;SDS011;13604;52.496;13.456;2023-07-31T09:20:25;3.17;;;2.10;;
25758;SDS011;13604;52.496;13.456;2023-07-31T09:22:50;3.22;;;1.90;;
25758;SDS011;13604;52.496;13.456;2023-07-31T09:25:17;3.58;;;1.98;;
25758;SDS011;13604;52.496;13.456;2023-07-31T09:27:50;4.22;;;2.15;;
25758;SDS011;13604;52.496;13.456;2023-07-31T09:30:18;5.95;;;1.83;;
25758;SDS011;13604;52.496;13.456;2023-07-31T09:32:44;4.43;;;1.52;;
25758;SDS011;13604;52.496;13.456;2023-07-31T09:35:43;1.70;;;1.60;;
25758;SDS011;13604;52.496;13.456;2023-07-31T09:38:03;2.70;;;2.00;;
25758;SDS011;13604;52.496;13.456;2023-07-31T09:40:31;2.47;;;1.60;;
25758;SDS011;13604;52.496;13.456;2023-07-31T09:43:01;3.80;;;1.90;;
25758;SDS011;13604;52.496;13.456;2023-07-31T09:45:28;5.45;;;1.70;;
25758;SDS011;13604;52.496;13.456;2023-07-31T09:47:54;4.65;;;1.60;;
25758;SDS011;13604;52.496;13.456;2023-07-31T09:50:21;2.25;;;1.52;;
25758;SDS011;13604;52.496;13.456;2023-07-31T09:52:47;1.88;;;1.45;;
25758;SDS011;13604;52.496;13.456;2023-07-31T09:55:13;1.60;;;1.50;;
25758;SDS011;13604;52.496;13.456;2023-07-31T09:57:39;2.20;;;1.40;;
25758;SDS011;13604;52.496;13.456;2023-07-31T10:00:07;2.80;;;1.10;;
25758;SDS011;13604;52.496;13.456;2023-07-31T10:02:34;4.28;;;1.42;;
25758;SDS011;13604;52.496;13.456;2023-07-31T10:05:01;2.70;;;1.50;;
25758;SDS011;13604;52.496;13.456;2023-07-31T10:07:28;2.30;;;1.70;;
25758;SDS011;13604;52.496;13.456;2023-07-31T10:09:55;4.43;;;2.40;;
25758;SDS011;13604;52.496;13.456;2023-07-31T10:12:25;3.17;;;2.10;;
25758;SDS011;13604;52.496;13.456;2023-07-31T10:14:53;4.30;;;2.40;;
25758;SDS011;13604;52.496;13.456;2023-07-31T10:17:19;4.13;;;3.20;;
25758;SDS011;13604;52.496;13.456;2023-07-31T10:19:46;3.45;;;2.42;;
25758;SDS011;13604;52.496;13.456;2023-07-31T10:22:12;7.85;;;2.95;;
25758;SDS011;13604;52.496;13.456;2023-07-31T10:24:38;4.65;;;3.17;;
25758;SDS011;13604;52.496;13.456;2023-07-31T10:27:04;7.72;;;2.90;;
25758;SDS011;13604;52.496;13.456;2023-07-31T10:29:30;11.20;;;3.67;;
25758;SDS011;13604;52.496;13.456;2023-07-31T10:31:57;8.30;;;3.58;;
25758;SDS011;13604;52.496;13.456;2023-07-31T10:34:24;5.47;;;3.45;;
25758;SDS011;13604;52.496;13.456;2023-07-31T10:36:50;5.10;;;3.83;;
25758;SDS011;13604;52.496;13.456;2023-07-31T10:39:36;6.75;;;3.83;;
25758;SDS011;13604;52.496;13.456;2023-07-31T10:42:10;7.13;;;3.38;;
25758;SDS011;13604;52.496;13.456;2023-07-31T10:44:43;7.07;;;3.40;;
25758;SDS011;13604;52.496;13.456;2023-07-31T10:47:08;5.25;;;3.55;;
25758;SDS011;13604;52.496;13.456;2023-07-31T10:49:33;8.43;;;3.75;;
25758;SDS011;13604;52.496;13.456;2023-07-31T10:51:59;5.05;;;2.95;;
25758;SDS011;13604;52.496;13.456;2023-07-31T10:54:24;6.82;;;3.55;;
25758;SDS011;13604;52.496;13.456;2023-07-31T10:56:50;7.10;;;3.00;;
25758;SDS011;13604;52.496;13.456;2023-07-31T10:59:15;4.78;;;2.80;;
25758;SDS011;13604;52.496;13.456;2023-07-31T11:02:35;4.88;;;3.22;;
25758;SDS011;13604;52.496;13.456;2023-07-31T11:05:09;6.30;;;3.38;;
25758;SDS011;13604;52.496;13.456;2023-07-31T11:07:50;6.68;;;3.22;;
25758;SDS011;13604;52.496;13.456;2023-07-31T11:10:16;7.53;;;3.30;;
25758;SDS011;13604;52.496;13.456;2023-07-31T11:12:45;7.03;;;2.72;;
25758;SDS011;13604;52.496;13.456;2023-07-31T11:15:11;6.32;;;2.58;;
25758;SDS011;13604;52.496;13.456;2023-07-31T11:17:40;4.93;;;3.00;;
25758;SDS011;13604;52.496;13.456;2023-07-31T11:20:06;5.18;;;3.03;;
25758;SDS011;13604;52.496;13.456;2023-07-31T11:22:35;6.90;;;3.33;;
25758;SDS011;13604;52.496;13.456;2023-07-31T11:25:01;5.10;;;3.45;;
25758;SDS011;13604;52.496;13.456;2023-07-31T11:27:28;5.05;;;3.20;;
25758;SDS011;13604;52.496;13.456;2023-07-31T11:29:59;9.45;;;3.38;;
25758;SDS011;13604;52.496;13.456;2023-07-31T11:32:25;6.40;;;3.60;;
25758;SDS011;13604;52.496;13.456;2023-07-31T11:34:54;5.10;;;3.17;;
25758;SDS011;13604;52.496;13.456;2023-07-31T11:37:19;4.32;;;2.88;;
25758;SDS011;13604;52.496;13.456;2023-07-31T11:39:58;5.70;;;3.17;;
25758;SDS011;13604;52.496;13.456;2023-07-31T11:42:26;5.15;;;3.00;;
25758;SDS011;13604;52.496;13.456;2023-07-31T11:44:52;5.63;;;3.30;;
25758;SDS011;13604;52.496;13.456;2023-07-31T11:47:17;6.93;;;2.72;;
25758;SDS011;13604;52.496;13.456;2023-07-31T11:49:43;7.00;;;3.15;;
25758;SDS011;13604;52.496;13.456;2023-07-31T11:52:09;5.85;;;3.08;;
25758;SDS011;13604;52.496;13.456;2023-07-31T11:54:36;6.15;;;3.00;;
25758;SDS011;13604;52.496;13.456;2023-07-31T11:57:02;5.47;;;2.92;;
25758;SDS011;13604;52.496;13.456;2023-07-31T11:59:28;5.15;;;3.28;;
25758;SDS011;13604;52.496;13.456;2023-07-31T12:01:54;5.63;;;3.00;;
25758;SDS011;13604;52.496;13.456;2023-07-31T12:04:19;9.20;;;3.33;;
25758;SDS011;13604;52.496;13.456;2023-07-31T12:06:46;6.45;;;2.95;;
25758;SDS011;13604;52.496;13.456;2023-07-31T12:09:13;6.03;;;3.17;;
25758;SDS011;13604;52.496;13.456;2023-07-31T12:11:45;7.90;;;3.58;;
25758;SDS011;13604;52.496;13.456;2023-07-31T12:14:24;5.88;;;3.05;;
25758;SDS011;13604;52.496;13.456;2023-07-31T12:16:58;4.57;;;3.03;;
25758;SDS011;13604;52.496;13.456;2023-07-31T12:19:25;4.93;;;2.80;;
25758;SDS011;13604;52.496;13.456;2023-07-31T12:21:55;5.93;;;3.17;;
25758;SDS011;13604;52.496;13.456;2023-07-31T12:24:21;5.38;;;3.00;;
25758;SDS011;13604;52.496;13.456;2023-07-31T12:26:46;4.32;;;2.75;;
25758;SDS011;13604;52.496;13.456;2023-07-31T12:29:13;4.40;;;2.92;;
25758;SDS011;13604;52.496;13.456;2023-07-31T12:31:38;3.90;;;2.55;;
25758;SDS011;13604;52.496;13.456;2023-07-31T12:34:14;4.95;;;3.15;;
25758;SDS011;13604;52.496;13.456;2023-07-31T12:36:42;5.95;;;2.90;;
25758;SDS011;13604;52.496;13.456;2023-07-31T12:39:07;6.03;;;2.80;;
25758;SDS011;13604;52.496;13.456;2023-07-31T12:41:33;5.95;;;2.90;;
25758;SDS011;13604;52.496;13.456;2023-07-31T12:43:58;5.35;;;2.67;;
25758;SDS011;13604;52.496;13.456;2023-07-31T12:46:24;4.45;;;2.67;;
25758;SDS011;13604;52.496;13.456;2023-07-31T12:48:49;4.50;;;2.60;;
25758;SDS011;13604;52.496;13.456;2023-07-31T12:51:15;10.55;;;2.90;;
25758;SDS011;13604;52.496;13.456;2023-07-31T12:53:40;4.13;;;2.60;;
25758;SDS011;13604;52.496;13.456;2023-07-31T12:56:05;7.25;;;2.55;;
25758;SDS011;13604;52.496;13.456;2023-07-31T12:58:31;7.00;;;3.00;;
25758;SDS011;13604;52.496;13.456;2023-07-31T13:00:56;3.95;;;2.30;;
25758;SDS011;13604;52.496;13.456;2023-07-31T13:03:21;2.70;;;1.90;;
25758;SDS011;13604;52.496;13.456;2023-07-31T13:05:47;5.15;;;2.33;;
25758;SDS011;13604;52.496;13.456;2023-07-31T13:08:12;5.13;;;2.20;;
25758;SDS011;13604;52.496;13.456;2023-07-31T13:10:38;4.00;;;2.10;;
25758;SDS011;13604;52.496;13.456;2023-07-31T13:13:04;3.20;;;2.00;;
25758;SDS011;13604;52.496;13.456;2023-07-31T13:15:29;4.15;;;2.28;;
25758;SDS011;13604;52.496;13.456;2023-07-31T13:17:54;3.47;;;2.00;;
25758;SDS011;13604;52.496;13.456;2023-07-31T13:20:19;4.90;;;2.30;;
25758;SDS011;13604;52.496;13.456;2023-07-31T13:22:45;3.65;;;2.35;;
25758;SDS011;13604;52.496;13.456;2023-07-31T13:25:10;3.60;;;2.17;;
25758;SDS011;13604;52.496;13.456;2023-07-31T13:27:35;4.13;;;2.47;;
25758;SDS011;13604;52.496;13.456;2023-07-31T13:30:01;4.65;;;2.47;;
25758;SDS011;13604;52.496;13.456;2023-07-31T13:32:26;5.47;;;2.50;;
25758;SDS011;13604;52.496;13.456;2023-07-31T13:34:51;4.80;;;2.70;;
25758;SDS011;13604;52.496;13.456;2023-07-31T13:37:17;3.47;;;2.47;;
25758;SDS011;13604;52.496;13.456;2023-07-31T13:39:42;6.15;;;2.85;;
25758;SDS011;13604;52.496;13.456;2023-07-31T13:42:08;5.03;;;2.75;;
25758;SDS011;13604;52.496;13.456;2023-07-31T13:44:34;4.28;;;2.65;;
25758;SDS011;13604;52.496;13.456;2023-07-31T13:47:00;4.88;;;2.83;;
25758;SDS011;13604;52.496;13.456;2023-07-31T13:49:25;6.40;;;2.92;;
25758;SDS011;13604;52.496;13.456;2023-07-31T13:51:51;5.57;;;3.10;;
25758;SDS011;13604;52.496;13.456;2023-07-31T13:54:16;4.43;;;2.80;;
25758;SDS011;13604;52.496;13.456;2023-07-31T13:56:42;7.00;;;2.80;;
25758;SDS011;13604;52.496;13.456;2023-07-31T13:59:08;5.32;;;2.88;;
25758;SDS011;13604;52.496;13.456;2023-07-31T14:01:33;6.10;;;2.80;;
25758;SDS011;13604;52.496;13.456;2023-07-31T14:03:58;5.55;;;2.65;;
25758;SDS011;13604;52.496;13.456;2023-07-31T14:06:24;3.65;;;3.00;;
25758;SDS011;13604;52.496;13.456;2023-07-31T14:08:49;7.00;;;2.95;;
25758;SDS011;13604;52.496;13.456;2023-07-31T14:11:14;4.78;;;3.20;;
25758;SDS011;13604;52.496;13.456;2023-07-31T14:13:40;3.97;;;3.13;;
25758;SDS011;13604;52.496;13.456;2023-07-31T14:16:05;7.95;;;2.88;;
25758;SDS011;13604;52.496;13.456;2023-07-31T14:18:31;8.30;;;2.95;;
25758;SDS011;13604;52.496;13.456;2023-07-31T14:20:56;5.22;;;3.17;;
25758;SDS011;13604;52.496;13.456;2023-07-31T14:23:22;7.38;;;3.20;;
25758;SDS011;13604;52.496;13.456;2023-07-31T14:25:47;7.22;;;3.20;;
25758;SDS011;13604;52.496;13.456;2023-07-31T14:28:12;4.85;;;3.05;;
25758;SDS011;13604;52.496;13.456;2023-07-31T14:30:38;5.22;;;3.10;;
25758;SDS011;13604;52.496;13.456;2023-07-31T14:33:03;4.55;;;3.15;;